sensor_id;sensor_type;location;lat;lon;timestamp;P1;durP1;ratioP1;P2;durP2;ratioP2
3881;SDS011;1956;53.482;10.238;2023-02-01T00:04:15;10.90;;;2.90;;
3881;SDS011;1956;53.482;10.238;2023-02-01T00:09:16;15.63;;;3.40;;
3881;SDS011;1956;53.482;10.238;2023-02-01T00:14:16;14.40;;;3.20;;
3881;SDS011;1956;53.482;10.238;2023-02-01T00:19:17;17.33;;;3.57;;
3881;SDS011;1956;53.482;10.238;2023-02-01T00:24:17;25.23;;;4.57;;
3881;SDS011;1956;53.482;10.238;2023-02-01T00:29:19;19.97;;;3.20;;
3881;SDS011;1956;53.482;10.238;2023-02-01T00:34:20;22.93;;;4.07;;
3881;SDS011;1956;53.482;10.238;2023-02-01T00:39:20;31.07;;;5.53;;
3881;SDS011;1956;53.482;10.238;2023-02-01T00:44:21;30.00;;;3.80;;
3881;SDS011;1956;53.482;10.238;2023-02-01T00:49:21;22.40;;;3.93;;
3881;SDS011;1956;53.482;10.238;2023-02-01T00:54:21;25.63;;;4.57;;
3881;SDS011;1956;53.482;10.238;2023-02-01T00:59:22;29.23;;;5.10;;
3881;SDS011;1956;53.482;10.238;2023-02-01T01:04:23;20.67;;;3.50;;
3881;SDS011;1956;53.482;10.238;2023-02-01T01:09:23;34.10;;;5.17;;
3881;SDS011;1956;53.482;10.238;2023-02-01T01:14:23;23.83;;;6.60;;
3881;SDS011;1956;53.482;10.238;2023-02-01T01:19:24;32.20;;;5.33;;
3881;SDS011;1956;53.482;10.238;2023-02-01T01:24:24;29.13;;;5.00;;
3881;SDS011;1956;53.482;10.238;2023-02-01T01:29:24;22.17;;;3.80;;
3881;SDS011;1956;53.482;10.238;2023-02-01T01:34:25;26.07;;;5.27;;
3881;SDS011;1956;53.482;10.238;2023-02-01T01:39:25;25.17;;;4.57;;
3881;SDS011;1956;53.482;10.238;2023-02-01T01:49:58;24.97;;;5.10;;
3881;SDS011;1956;53.482;10.238;2023-02-01T01:54:58;37.73;;;6.47;;
3881;SDS011;1956;53.482;10.238;2023-02-01T02:00:00;25.10;;;5.23;;
3881;SDS011;1956;53.482;10.238;2023-02-01T02:05:07;27.47;;;5.07;;
3881;SDS011;1956;53.482;10.238;2023-02-01T02:10:09;29.27;;;4.30;;
3881;SDS011;1956;53.482;10.238;2023-02-01T02:15:11;39.00;;;5.97;;
3881;SDS011;1956;53.482;10.238;2023-02-01T02:31:51;26.20;;;5.13;;
3881;SDS011;1956;53.482;10.238;2023-02-01T02:43:43;26.50;;;4.80;;
3881;SDS011;1956;53.482;10.238;2023-02-01T02:49:05;42.47;;;5.30;;
3881;SDS011;1956;53.482;10.238;2023-02-01T02:54:12;45.83;;;5.40;;
3881;SDS011;1956;53.482;10.238;2023-02-01T02:59:34;32.03;;;5.60;;
3881;SDS011;1956;53.482;10.238;2023-02-01T03:04:54;24.70;;;5.30;;
3881;SDS011;1956;53.482;10.238;2023-02-01T03:09:57;34.43;;;4.97;;
3881;SDS011;1956;53.482;10.238;2023-02-01T03:15:05;29.07;;;4.53;;
3881;SDS011;1956;53.482;10.238;2023-02-01T03:20:09;28.70;;;4.97;;
3881;SDS011;1956;53.482;10.238;2023-02-01T03:25:12;29.07;;;5.20;;
3881;SDS011;1956;53.482;10.238;2023-02-01T03:30:24;29.53;;;5.10;;
3881;SDS011;1956;53.482;10.238;2023-02-01T03:41:09;23.07;;;3.63;;
3881;SDS011;1956;53.482;10.238;2023-02-01T03:46:12;23.30;;;3.67;;
3881;SDS011;1956;53.482;10.238;2023-02-01T03:51:17;12.93;;;2.80;;
3881;SDS011;1956;53.482;10.238;2023-02-01T03:56:19;5.77;;;1.10;;
3881;SDS011;1956;53.482;10.238;2023-02-01T04:01:21;9.60;;;1.47;;
3881;SDS011;1956;53.482;10.238;2023-02-01T04:06:21;6.20;;;1.17;;
3881;SDS011;1956;53.482;10.238;2023-02-01T04:11:22;10.80;;;1.47;;
3881;SDS011;1956;53.482;10.238;2023-02-01T04:16:22;11.40;;;2.30;;
3881;SDS011;1956;53.482;10.238;2023-02-01T04:21:23;8.43;;;2.47;;
3881;SDS011;1956;53.482;10.238;2023-02-01T04:26:23;19.13;;;3.33;;
3881;SDS011;1956;53.482;10.238;2023-02-01T04:31:23;12.67;;;3.00;;
3881;SDS011;1956;53.482;10.238;2023-02-01T04:36:27;26.07;;;2.90;;
3881;SDS011;1956;53.482;10.238;2023-02-01T04:41:27;13.13;;;2.90;;
3881;SDS011;1956;53.482;10.238;2023-02-01T04:46:28;11.63;;;2.17;;
3881;SDS011;1956;53.482;10.238;2023-02-01T04:51:29;14.90;;;3.23;;
3881;SDS011;1956;53.482;10.238;2023-02-01T04:56:30;11.17;;;2.10;;
3881;SDS011;1956;53.482;10.238;2023-02-01T05:01:30;10.30;;;2.27;;
3881;SDS011;1956;53.482;10.238;2023-02-01T05:06:31;11.23;;;2.33;;
3881;SDS011;1956;53.482;10.238;2023-02-01T05:11:31;5.00;;;1.50;;
3881;SDS011;1956;53.482;10.238;2023-02-01T05:16:50;7.23;;;1.67;;
3881;SDS011;1956;53.482;10.238;2023-02-01T05:21:50;10.87;;;1.30;;
3881;SDS011;1956;53.482;10.238;2023-02-01T05:26:51;1.80;;;1.00;;
3881;SDS011;1956;53.482;10.238;2023-02-01T05:31:51;9.60;;;1.43;;
3881;SDS011;1956;53.482;10.238;2023-02-01T05:36:52;1.50;;;0.67;;
3881;SDS011;1956;53.482;10.238;2023-02-01T05:41:52;2.00;;;1.23;;
3881;SDS011;1956;53.482;10.238;2023-02-01T05:46:52;0.67;;;0.67;;
3881;SDS011;1956;53.482;10.238;2023-02-01T05:51:53;0.53;;;0.53;;
3881;SDS011;1956;53.482;10.238;2023-02-01T05:56:53;1.63;;;0.50;;
3881;SDS011;1956;53.482;10.238;2023-02-01T06:01:53;0.93;;;0.77;;
3881;SDS011;1956;53.482;10.238;2023-02-01T06:06:54;1.23;;;0.60;;
3881;SDS011;1956;53.482;10.238;2023-02-01T06:11:54;1.20;;;0.63;;
3881;SDS011;1956;53.482;10.238;2023-02-01T06:16:55;2.50;;;0.70;;
3881;SDS011;1956;53.482;10.238;2023-02-01T06:21:55;1.43;;;0.60;;
3881;SDS011;1956;53.482;10.238;2023-02-01T06:26:55;1.70;;;0.83;;
3881;SDS011;1956;53.482;10.238;2023-02-01T06:31:56;2.97;;;1.10;;
3881;SDS011;1956;53.482;10.238;2023-02-01T06:36:56;3.40;;;0.80;;
3881;SDS011;1956;53.482;10.238;2023-02-01T06:41:56;1.70;;;0.93;;
3881;SDS011;1956;53.482;10.238;2023-02-01T06:46:57;6.30;;;1.30;;
3881;SDS011;1956;53.482;10.238;2023-02-01T06:51:57;3.47;;;1.13;;
3881;SDS011;1956;53.482;10.238;2023-02-01T06:57:00;3.37;;;1.03;;
3881;SDS011;1956;53.482;10.238;2023-02-01T07:02:00;9.73;;;2.30;;
3881;SDS011;1956;53.482;10.238;2023-02-01T07:07:00;3.50;;;1.47;;
3881;SDS011;1956;53.482;10.238;2023-02-01T07:12:01;9.87;;;1.70;;
3881;SDS011;1956;53.482;10.238;2023-02-01T07:17:01;14.53;;;2.97;;
3881;SDS011;1956;53.482;10.238;2023-02-01T07:22:01;24.90;;;3.10;;
3881;SDS011;1956;53.482;10.238;2023-02-01T07:27:02;10.73;;;2.80;;
3881;SDS011;1956;53.482;10.238;2023-02-01T07:32:02;19.90;;;3.80;;
3881;SDS011;1956;53.482;10.238;2023-02-01T07:37:02;19.20;;;3.63;;
3881;SDS011;1956;53.482;10.238;2023-02-01T07:42:03;15.73;;;2.77;;
3881;SDS011;1956;53.482;10.238;2023-02-01T07:47:03;21.17;;;3.50;;
3881;SDS011;1956;53.482;10.238;2023-02-01T07:52:04;11.83;;;3.93;;
3881;SDS011;1956;53.482;10.238;2023-02-01T07:57:04;26.77;;;4.13;;
3881;SDS011;1956;53.482;10.238;2023-02-01T08:02:05;38.37;;;3.93;;
3881;SDS011;1956;53.482;10.238;2023-02-01T08:07:05;25.33;;;3.60;;
3881;SDS011;1956;53.482;10.238;2023-02-01T08:12:05;20.37;;;3.30;;
3881;SDS011;1956;53.482;10.238;2023-02-01T08:17:06;31.60;;;4.40;;
3881;SDS011;1956;53.482;10.238;2023-02-01T08:22:06;35.57;;;4.20;;
3881;SDS011;1956;53.482;10.238;2023-02-01T08:27:07;29.93;;;4.23;;
3881;SDS011;1956;53.482;10.238;2023-02-01T08:32:07;25.10;;;5.50;;
3881;SDS011;1956;53.482;10.238;2023-02-01T08:37:07;32.53;;;3.80;;
3881;SDS011;1956;53.482;10.238;2023-02-01T08:42:08;31.30;;;5.17;;
3881;SDS011;1956;53.482;10.238;2023-02-01T08:47:27;27.13;;;4.63;;
3881;SDS011;1956;53.482;10.238;2023-02-01T08:52:28;40.10;;;5.63;;
3881;SDS011;1956;53.482;10.238;2023-02-01T08:57:28;27.50;;;4.53;;
3881;SDS011;1956;53.482;10.238;2023-02-01T09:02:29;34.80;;;6.03;;
3881;SDS011;1956;53.482;10.238;2023-02-01T09:07:29;35.83;;;4.60;;
3881;SDS011;1956;53.482;10.238;2023-02-01T09:12:30;28.70;;;4.40;;
3881;SDS011;1956;53.482;10.238;2023-02-01T09:17:32;15.83;;;4.27;;
3881;SDS011;1956;53.482;10.238;2023-02-01T09:22:33;23.40;;;5.27;;
3881;SDS011;1956;53.482;10.238;2023-02-01T09:27:33;23.17;;;4.73;;
3881;SDS011;1956;53.482;10.238;2023-02-01T09:32:35;24.63;;;4.80;;
3881;SDS011;1956;53.482;10.238;2023-02-01T09:37:35;24.43;;;3.90;;
3881;SDS011;1956;53.482;10.238;2023-02-01T09:48:21;23.97;;;4.90;;
3881;SDS011;1956;53.482;10.238;2023-02-01T09:53:29;18.03;;;4.80;;
3881;SDS011;1956;53.482;10.238;2023-02-01T09:58:41;28.00;;;4.87;;
3881;SDS011;1956;53.482;10.238;2023-02-01T10:03:44;32.17;;;6.53;;
3881;SDS011;1956;53.482;10.238;2023-02-01T10:20:17;17.90;;;3.93;;
3881;SDS011;1956;53.482;10.238;2023-02-01T10:25:26;15.33;;;4.00;;
3881;SDS011;1956;53.482;10.238;2023-02-01T10:30:34;22.97;;;3.47;;
3881;SDS011;1956;53.482;10.238;2023-02-01T10:35:40;18.03;;;3.70;;
3881;SDS011;1956;53.482;10.238;2023-02-01T10:40:41;21.47;;;3.93;;
3881;SDS011;1956;53.482;10.238;2023-02-01T10:45:42;13.57;;;2.57;;
3881;SDS011;1956;53.482;10.238;2023-02-01T10:51:20;22.30;;;4.60;;
3881;SDS011;1956;53.482;10.238;2023-02-01T10:56:18;24.70;;;4.10;;
3881;SDS011;1956;53.482;10.238;2023-02-01T11:01:30;19.83;;;4.63;;
3881;SDS011;1956;53.482;10.238;2023-02-01T11:06:35;19.17;;;3.43;;
3881;SDS011;1956;53.482;10.238;2023-02-01T11:17:23;21.00;;;3.40;;
3881;SDS011;1956;53.482;10.238;2023-02-01T11:22:27;18.90;;;3.30;;
3881;SDS011;1956;53.482;10.238;2023-02-01T11:27:29;29.33;;;4.57;;
3881;SDS011;1956;53.482;10.238;2023-02-01T11:32:32;17.70;;;2.77;;
3881;SDS011;1956;53.482;10.238;2023-02-01T11:37:36;16.07;;;3.00;;
3881;SDS011;1956;53.482;10.238;2023-02-01T11:42:38;21.33;;;3.50;;
3881;SDS011;1956;53.482;10.238;2023-02-01T11:48:00;24.70;;;3.23;;
3881;SDS011;1956;53.482;10.238;2023-02-01T12:04:16;14.70;;;2.20;;
3881;SDS011;1956;53.482;10.238;2023-02-01T12:10:01;12.47;;;2.37;;
3881;SDS011;1956;53.482;10.238;2023-02-01T12:38:23;10.60;;;1.83;;
3881;SDS011;1956;53.482;10.238;2023-02-01T12:49:23;7.03;;;1.10;;
3881;SDS011;1956;53.482;10.238;2023-02-01T12:54:40;3.07;;;1.07;;
3881;SDS011;1956;53.482;10.238;2023-02-01T12:59:53;7.00;;;0.87;;
3881;SDS011;1956;53.482;10.238;2023-02-01T13:05:18;3.13;;;0.80;;
3881;SDS011;1956;53.482;10.238;2023-02-01T13:10:32;0.90;;;0.50;;
3881;SDS011;1956;53.482;10.238;2023-02-01T13:15:39;3.03;;;0.80;;
3881;SDS011;1956;53.482;10.238;2023-02-01T13:20:55;0.70;;;0.60;;
3881;SDS011;1956;53.482;10.238;2023-02-01T13:25:59;2.30;;;0.57;;
3881;SDS011;1956;53.482;10.238;2023-02-01T13:42:48;0.80;;;0.60;;
3881;SDS011;1956;53.482;10.238;2023-02-01T13:47:54;1.13;;;0.40;;
3881;SDS011;1956;53.482;10.238;2023-02-01T13:52:57;0.50;;;0.50;;
3881;SDS011;1956;53.482;10.238;2023-02-01T13:58:00;1.80;;;0.70;;
3881;SDS011;1956;53.482;10.238;2023-02-01T14:03:21;1.00;;;0.60;;
3881;SDS011;1956;53.482;10.238;2023-02-01T14:08:24;4.10;;;0.60;;
3881;SDS011;1956;53.482;10.238;2023-02-01T14:13:40;3.10;;;0.50;;
3881;SDS011;1956;53.482;10.238;2023-02-01T14:18:57;3.10;;;0.70;;
3881;SDS011;1956;53.482;10.238;2023-02-01T14:24:00;1.33;;;0.77;;
3881;SDS011;1956;53.482;10.238;2023-02-01T14:34:48;9.13;;;1.43;;
3881;SDS011;1956;53.482;10.238;2023-02-01T14:39:56;11.97;;;1.77;;
3881;SDS011;1956;53.482;10.238;2023-02-01T14:50:47;4.10;;;1.00;;
3881;SDS011;1956;53.482;10.238;2023-02-01T14:56:07;16.43;;;1.77;;
3881;SDS011;1956;53.482;10.238;2023-02-01T15:01:27;2.50;;;1.17;;
3881;SDS011;1956;53.482;10.238;2023-02-01T15:06:31;7.87;;;1.37;;
3881;SDS011;1956;53.482;10.238;2023-02-01T15:11:59;6.13;;;1.37;;
3881;SDS011;1956;53.482;10.238;2023-02-01T15:17:25;14.80;;;1.87;;
3881;SDS011;1956;53.482;10.238;2023-02-01T15:22:28;13.40;;;2.07;;
3881;SDS011;1956;53.482;10.238;2023-02-01T15:27:29;17.13;;;2.90;;
3881;SDS011;1956;53.482;10.238;2023-02-01T15:32:35;13.93;;;2.13;;
3881;SDS011;1956;53.482;10.238;2023-02-01T15:37:40;16.53;;;2.60;;
3881;SDS011;1956;53.482;10.238;2023-02-01T15:42:53;11.53;;;1.93;;
3881;SDS011;1956;53.482;10.238;2023-02-01T15:47:56;14.60;;;2.73;;
3881;SDS011;1956;53.482;10.238;2023-02-01T15:52:57;9.90;;;2.03;;
3881;SDS011;1956;53.482;10.238;2023-02-01T15:57:57;12.87;;;2.00;;
3881;SDS011;1956;53.482;10.238;2023-02-01T16:02:59;12.23;;;1.73;;
3881;SDS011;1956;53.482;10.238;2023-02-01T16:08:21;25.23;;;2.03;;
3881;SDS011;1956;53.482;10.238;2023-02-01T16:13:22;10.53;;;2.07;;
3881;SDS011;1956;53.482;10.238;2023-02-01T16:18:23;18.10;;;3.07;;
3881;SDS011;1956;53.482;10.238;2023-02-01T16:23:23;11.20;;;2.60;;
3881;SDS011;1956;53.482;10.238;2023-02-01T16:28:23;16.83;;;2.83;;
3881;SDS011;1956;53.482;10.238;2023-02-01T16:33:24;18.77;;;3.23;;
3881;SDS011;1956;53.482;10.238;2023-02-01T16:38:24;22.20;;;3.77;;
3881;SDS011;1956;53.482;10.238;2023-02-01T16:43:26;15.40;;;4.13;;
3881;SDS011;1956;53.482;10.238;2023-02-01T16:48:27;30.00;;;3.67;;
3881;SDS011;1956;53.482;10.238;2023-02-01T16:53:30;24.30;;;4.03;;
3881;SDS011;1956;53.482;10.238;2023-02-01T16:58:31;26.73;;;4.40;;
3881;SDS011;1956;53.482;10.238;2023-02-01T17:03:31;21.43;;;4.90;;
3881;SDS011;1956;53.482;10.238;2023-02-01T17:08:32;36.80;;;4.90;;
3881;SDS011;1956;53.482;10.238;2023-02-01T17:13:37;32.43;;;6.27;;
3881;SDS011;1956;53.482;10.238;2023-02-01T17:18:37;32.20;;;6.30;;
3881;SDS011;1956;53.482;10.238;2023-02-01T17:23:38;32.53;;;5.17;;
3881;SDS011;1956;53.482;10.238;2023-02-01T17:28:38;25.50;;;4.93;;
3881;SDS011;1956;53.482;10.238;2023-02-01T17:39:35;26.40;;;3.90;;
3881;SDS011;1956;53.482;10.238;2023-02-01T17:44:58;43.03;;;5.77;;
3881;SDS011;1956;53.482;10.238;2023-02-01T17:50:01;38.43;;;7.20;;
3881;SDS011;1956;53.482;10.238;2023-02-01T17:55:02;33.13;;;6.00;;
3881;SDS011;1956;53.482;10.238;2023-02-01T18:00:04;31.50;;;4.80;;
3881;SDS011;1956;53.482;10.238;2023-02-01T18:05:38;27.73;;;5.17;;
3881;SDS011;1956;53.482;10.238;2023-02-01T18:10:42;29.93;;;4.60;;
3881;SDS011;1956;53.482;10.238;2023-02-01T18:15:43;23.90;;;4.23;;
3881;SDS011;1956;53.482;10.238;2023-02-01T18:20:44;42.90;;;7.53;;
3881;SDS011;1956;53.482;10.238;2023-02-01T18:25:44;18.17;;;4.77;;
3881;SDS011;1956;53.482;10.238;2023-02-01T18:30:47;36.03;;;7.27;;
3881;SDS011;1956;53.482;10.238;2023-02-01T18:35:49;35.73;;;4.30;;
3881;SDS011;1956;53.482;10.238;2023-02-01T18:40:50;27.33;;;5.00;;
3881;SDS011;1956;53.482;10.238;2023-02-01T18:45:52;31.47;;;7.10;;
3881;SDS011;1956;53.482;10.238;2023-02-01T18:50:53;32.13;;;6.10;;
3881;SDS011;1956;53.482;10.238;2023-02-01T18:55:56;20.43;;;3.87;;
3881;SDS011;1956;53.482;10.238;2023-02-01T19:00:58;29.20;;;5.07;;
3881;SDS011;1956;53.482;10.238;2023-02-01T19:06:04;31.50;;;5.23;;
3881;SDS011;1956;53.482;10.238;2023-02-01T19:11:07;30.40;;;4.57;;
3881;SDS011;1956;53.482;10.238;2023-02-01T19:16:12;24.20;;;4.73;;
3881;SDS011;1956;53.482;10.238;2023-02-01T19:21:12;14.33;;;3.20;;
3881;SDS011;1956;53.482;10.238;2023-02-01T19:26:13;22.60;;;4.27;;
3881;SDS011;1956;53.482;10.238;2023-02-01T19:31:15;22.90;;;4.27;;
3881;SDS011;1956;53.482;10.238;2023-02-01T19:36:16;32.93;;;5.40;;
3881;SDS011;1956;53.482;10.238;2023-02-01T19:41:16;22.97;;;3.77;;
3881;SDS011;1956;53.482;10.238;2023-02-01T19:46:17;36.27;;;4.10;;
3881;SDS011;1956;53.482;10.238;2023-02-01T19:51:17;25.53;;;4.20;;
3881;SDS011;1956;53.482;10.238;2023-02-01T19:56:18;16.40;;;4.13;;
3881;SDS011;1956;53.482;10.238;2023-02-01T20:01:18;13.00;;;3.23;;
3881;SDS011;1956;53.482;10.238;2023-02-01T20:06:18;20.30;;;2.37;;
3881;SDS011;1956;53.482;10.238;2023-02-01T20:11:19;7.90;;;2.27;;
3881;SDS011;1956;53.482;10.238;2023-02-01T20:16:19;11.67;;;2.20;;
3881;SDS011;1956;53.482;10.238;2023-02-01T20:21:21;15.10;;;2.53;;
3881;SDS011;1956;53.482;10.238;2023-02-01T20:26:24;19.27;;;2.67;;
3881;SDS011;1956;53.482;10.238;2023-02-01T20:31:24;23.03;;;3.20;;
3881;SDS011;1956;53.482;10.238;2023-02-01T20:36:28;16.73;;;4.70;;
3881;SDS011;1956;53.482;10.238;2023-02-01T20:41:29;18.13;;;3.43;;
3881;SDS011;1956;53.482;10.238;2023-02-01T20:46:29;21.67;;;4.57;;
3881;SDS011;1956;53.482;10.238;2023-02-01T20:51:30;29.00;;;3.78;;
3881;SDS011;1956;53.482;10.238;2023-02-01T20:56:30;32.43;;;5.00;;
3881;SDS011;1956;53.482;10.238;2023-02-01T21:01:30;34.08;;;4.35;;
3881;SDS011;1956;53.482;10.238;2023-02-01T21:06:31;17.10;;;3.37;;
3881;SDS011;1956;53.482;10.238;2023-02-01T21:11:31;23.37;;;4.20;;
3881;SDS011;1956;53.482;10.238;2023-02-01T21:16:32;27.10;;;3.73;;
3881;SDS011;1956;53.482;10.238;2023-02-01T21:21:32;21.80;;;4.33;;
3881;SDS011;1956;53.482;10.238;2023-02-01T21:26:32;21.13;;;3.73;;
3881;SDS011;1956;53.482;10.238;2023-02-01T21:31:42;27.40;;;4.37;;
3881;SDS011;1956;53.482;10.238;2023-02-01T21:36:42;27.03;;;4.10;;
3881;SDS011;1956;53.482;10.238;2023-02-01T21:41:43;18.60;;;4.23;;
3881;SDS011;1956;53.482;10.238;2023-02-01T21:47:01;43.73;;;6.57;;
3881;SDS011;1956;53.482;10.238;2023-02-01T21:52:02;41.60;;;6.00;;
3881;SDS011;1956;53.482;10.238;2023-02-01T21:57:03;26.27;;;4.23;;
3881;SDS011;1956;53.482;10.238;2023-02-01T22:02:04;22.13;;;5.13;;
3881;SDS011;1956;53.482;10.238;2023-02-01T22:07:05;29.73;;;4.07;;
3881;SDS011;1956;53.482;10.238;2023-02-01T22:12:05;22.37;;;4.27;;
3881;SDS011;1956;53.482;10.238;2023-02-01T22:17:07;37.70;;;5.90;;
3881;SDS011;1956;53.482;10.238;2023-02-01T22:22:07;33.10;;;6.80;;
3881;SDS011;1956;53.482;10.238;2023-02-01T22:27:10;29.23;;;4.90;;
3881;SDS011;1956;53.482;10.238;2023-02-01T22:32:10;25.90;;;4.53;;
3881;SDS011;1956;53.482;10.238;2023-02-01T22:37:12;21.57;;;4.20;;
3881;SDS011;1956;53.482;10.238;2023-02-01T22:42:13;26.90;;;4.73;;
3881;SDS011;1956;53.482;10.238;2023-02-01T22:47:13;20.30;;;4.67;;
3881;SDS011;1956;53.482;10.238;2023-02-01T22:52:15;25.67;;;4.97;;
3881;SDS011;1956;53.482;10.238;2023-02-01T22:57:16;35.67;;;5.40;;
3881;SDS011;1956;53.482;10.238;2023-02-01T23:02:16;41.87;;;6.60;;
3881;SDS011;1956;53.482;10.238;2023-02-01T23:07:16;32.57;;;6.73;;
3881;SDS011;1956;53.482;10.238;2023-02-01T23:12:17;24.90;;;5.70;;
3881;SDS011;1956;53.482;10.238;2023-02-01T23:17:17;37.03;;;5.27;;
3881;SDS011;1956;53.482;10.238;2023-02-01T23:22:18;28.83;;;4.90;;
3881;SDS011;1956;53.482;10.238;2023-02-01T23:27:18;24.30;;;4.53;;
3881;SDS011;1956;53.482;10.238;2023-02-01T23:32:19;21.73;;;3.90;;
3881;SDS011;1956;53.482;10.238;2023-02-01T23:37:19;23.27;;;4.47;;
3881;SDS011;1956;53.482;10.238;2023-02-01T23:42:20;30.57;;;4.80;;
3881;SDS011;1956;53.482;10.238;2023-02-01T23:47:20;21.07;;;4.23;;
3881;SDS011;1956;53.482;10.238;2023-02-01T23:52:21;31.90;;;4.87;;
3881;SDS011;1956;53.482;10.238;2023-02-01T23:57:21;29.83;;;4.70;;
